TAF for EBLB provided by aerobaticsweb.org
Current time: Tuesday, 26 Jan, 2021, 01:19 UTC
(This may take a minute, please be patient)


The most recent TAF forecast from EBLB in our system was generated at
2019/11/20 19:21 UTC
The forecast is:
EBLB 2019/11/20 19:21 UTC
TAF TAF EBLB 201541Z 2019/2107 11006KT 9999 SCT012 SCT250
TEMPO 2019/2104 BKN006
BECMG 2102/2104 7000 FEW008



access provided by Dr. Guenther Eichhorn at aerobaticsweb.org